sensor_id;sensor_type;location;lat;lon;timestamp;P1;durP1;ratioP1;P2;durP2;ratioP2
11998;SDS011;40817;51.520;9.954;2024-03-02T00:01:41;31.88;;;17.38;;
11998;SDS011;40817;51.520;9.954;2024-03-02T00:04:08;31.52;;;16.65;;
11998;SDS011;40817;51.520;9.954;2024-03-02T00:06:37;30.30;;;16.42;;
11998;SDS011;40817;51.520;9.954;2024-03-02T00:09:05;35.63;;;17.58;;
11998;SDS011;40817;51.520;9.954;2024-03-02T00:11:36;31.00;;;15.75;;
11998;SDS011;40817;51.520;9.954;2024-03-02T00:14:04;29.92;;;16.77;;
11998;SDS011;40817;51.520;9.954;2024-03-02T00:16:31;29.60;;;16.50;;
11998;SDS011;40817;51.520;9.954;2024-03-02T00:19:01;31.30;;;17.17;;
11998;SDS011;40817;51.520;9.954;2024-03-02T00:21:30;29.67;;;15.88;;
11998;SDS011;40817;51.520;9.954;2024-03-02T00:23:59;28.05;;;15.23;;
11998;SDS011;40817;51.520;9.954;2024-03-02T00:26:28;31.73;;;16.27;;
11998;SDS011;40817;51.520;9.954;2024-03-02T00:28:56;32.97;;;16.33;;
11998;SDS011;40817;51.520;9.954;2024-03-02T00:31:23;25.92;;;15.35;;
11998;SDS011;40817;51.520;9.954;2024-03-02T00:33:50;29.38;;;15.95;;
11998;SDS011;40817;51.520;9.954;2024-03-02T00:36:22;27.05;;;15.20;;
11998;SDS011;40817;51.520;9.954;2024-03-02T00:38:53;28.98;;;16.25;;
11998;SDS011;40817;51.520;9.954;2024-03-02T00:41:23;29.65;;;16.02;;
11998;SDS011;40817;51.520;9.954;2024-03-02T00:43:57;34.90;;;16.17;;
11998;SDS011;40817;51.520;9.954;2024-03-02T00:46:27;28.33;;;15.85;;
11998;SDS011;40817;51.520;9.954;2024-03-02T00:48:59;29.35;;;16.95;;
11998;SDS011;40817;51.520;9.954;2024-03-02T00:51:29;27.90;;;16.33;;
11998;SDS011;40817;51.520;9.954;2024-03-02T00:54:02;29.70;;;16.98;;
11998;SDS011;40817;51.520;9.954;2024-03-02T00:56:33;30.70;;;16.20;;
11998;SDS011;40817;51.520;9.954;2024-03-02T00:59:00;27.90;;;15.90;;
11998;SDS011;40817;51.520;9.954;2024-03-02T01:01:28;29.85;;;16.40;;
11998;SDS011;40817;51.520;9.954;2024-03-02T01:03:55;31.00;;;16.83;;
11998;SDS011;40817;51.520;9.954;2024-03-02T01:06:22;33.88;;;17.55;;
11998;SDS011;40817;51.520;9.954;2024-03-02T01:08:50;34.00;;;17.38;;
11998;SDS011;40817;51.520;9.954;2024-03-02T01:11:17;30.15;;;17.10;;
11998;SDS011;40817;51.520;9.954;2024-03-02T01:13:48;29.27;;;16.83;;
11998;SDS011;40817;51.520;9.954;2024-03-02T01:16:15;34.95;;;18.20;;
11998;SDS011;40817;51.520;9.954;2024-03-02T01:18:43;30.42;;;16.75;;
11998;SDS011;40817;51.520;9.954;2024-03-02T01:21:10;30.25;;;17.35;;
11998;SDS011;40817;51.520;9.954;2024-03-02T01:23:38;30.52;;;16.70;;
11998;SDS011;40817;51.520;9.954;2024-03-02T01:26:05;35.65;;;17.90;;
11998;SDS011;40817;51.520;9.954;2024-03-02T01:28:32;35.40;;;17.17;;
11998;SDS011;40817;51.520;9.954;2024-03-02T01:31:01;33.47;;;17.00;;
11998;SDS011;40817;51.520;9.954;2024-03-02T01:33:28;29.75;;;16.10;;
11998;SDS011;40817;51.520;9.954;2024-03-02T01:35:56;30.17;;;16.58;;
11998;SDS011;40817;51.520;9.954;2024-03-02T01:38:23;29.65;;;16.48;;
11998;SDS011;40817;51.520;9.954;2024-03-02T01:40:50;28.40;;;16.75;;
11998;SDS011;40817;51.520;9.954;2024-03-02T01:43:18;31.58;;;16.67;;
11998;SDS011;40817;51.520;9.954;2024-03-02T01:45:45;29.48;;;16.85;;
11998;SDS011;40817;51.520;9.954;2024-03-02T01:48:13;31.55;;;17.10;;
11998;SDS011;40817;51.520;9.954;2024-03-02T01:50:41;29.73;;;16.23;;
11998;SDS011;40817;51.520;9.954;2024-03-02T01:53:08;29.73;;;16.70;;
11998;SDS011;40817;51.520;9.954;2024-03-02T01:55:36;28.20;;;15.73;;
11998;SDS011;40817;51.520;9.954;2024-03-02T01:58:03;29.67;;;15.98;;
11998;SDS011;40817;51.520;9.954;2024-03-02T02:00:31;33.80;;;16.67;;
11998;SDS011;40817;51.520;9.954;2024-03-02T02:02:59;30.55;;;17.15;;
11998;SDS011;40817;51.520;9.954;2024-03-02T02:05:27;30.30;;;17.02;;
11998;SDS011;40817;51.520;9.954;2024-03-02T02:07:55;28.95;;;16.45;;
11998;SDS011;40817;51.520;9.954;2024-03-02T02:10:23;33.00;;;17.73;;
11998;SDS011;40817;51.520;9.954;2024-03-02T02:12:50;31.48;;;16.23;;
11998;SDS011;40817;51.520;9.954;2024-03-02T02:15:22;31.25;;;17.80;;
11998;SDS011;40817;51.520;9.954;2024-03-02T02:17:51;29.08;;;15.82;;
11998;SDS011;40817;51.520;9.954;2024-03-02T02:20:18;29.42;;;16.92;;
11998;SDS011;40817;51.520;9.954;2024-03-02T02:22:55;30.92;;;16.45;;
11998;SDS011;40817;51.520;9.954;2024-03-02T02:25:23;32.10;;;17.33;;
11998;SDS011;40817;51.520;9.954;2024-03-02T02:27:51;30.70;;;16.73;;
11998;SDS011;40817;51.520;9.954;2024-03-02T02:30:19;32.20;;;17.02;;
11998;SDS011;40817;51.520;9.954;2024-03-02T02:32:48;28.67;;;16.23;;
11998;SDS011;40817;51.520;9.954;2024-03-02T02:35:15;27.50;;;15.77;;
11998;SDS011;40817;51.520;9.954;2024-03-02T02:37:43;30.20;;;16.75;;
11998;SDS011;40817;51.520;9.954;2024-03-02T02:40:13;27.13;;;15.35;;
11998;SDS011;40817;51.520;9.954;2024-03-02T02:42:41;31.55;;;16.40;;
11998;SDS011;40817;51.520;9.954;2024-03-02T02:45:08;29.67;;;15.50;;
11998;SDS011;40817;51.520;9.954;2024-03-02T02:47:36;26.90;;;16.13;;
11998;SDS011;40817;51.520;9.954;2024-03-02T02:50:03;30.02;;;16.45;;
11998;SDS011;40817;51.520;9.954;2024-03-02T02:52:34;29.45;;;15.80;;
11998;SDS011;40817;51.520;9.954;2024-03-02T02:55:04;27.95;;;16.25;;
11998;SDS011;40817;51.520;9.954;2024-03-02T02:57:36;29.70;;;16.00;;
11998;SDS011;40817;51.520;9.954;2024-03-02T03:00:05;26.92;;;15.30;;
11998;SDS011;40817;51.520;9.954;2024-03-02T03:02:39;24.00;;;14.88;;
11998;SDS011;40817;51.520;9.954;2024-03-02T03:05:08;28.42;;;15.85;;
11998;SDS011;40817;51.520;9.954;2024-03-02T03:07:36;28.80;;;16.30;;
11998;SDS011;40817;51.520;9.954;2024-03-02T03:10:05;24.45;;;14.82;;
11998;SDS011;40817;51.520;9.954;2024-03-02T03:12:35;26.35;;;15.40;;
11998;SDS011;40817;51.520;9.954;2024-03-02T03:15:03;27.90;;;15.77;;
11998;SDS011;40817;51.520;9.954;2024-03-02T03:17:33;25.48;;;14.68;;
11998;SDS011;40817;51.520;9.954;2024-03-02T03:20:01;26.45;;;14.80;;
11998;SDS011;40817;51.520;9.954;2024-03-02T03:22:29;25.45;;;15.32;;
11998;SDS011;40817;51.520;9.954;2024-03-02T03:24:56;28.55;;;15.60;;
11998;SDS011;40817;51.520;9.954;2024-03-02T03:27:24;25.58;;;14.30;;
11998;SDS011;40817;51.520;9.954;2024-03-02T03:29:53;26.20;;;14.60;;
11998;SDS011;40817;51.520;9.954;2024-03-02T03:32:20;26.15;;;14.77;;
11998;SDS011;40817;51.520;9.954;2024-03-02T03:34:48;28.38;;;15.70;;
11998;SDS011;40817;51.520;9.954;2024-03-02T03:37:15;26.27;;;14.43;;
11998;SDS011;40817;51.520;9.954;2024-03-02T03:39:42;25.77;;;15.27;;
11998;SDS011;40817;51.520;9.954;2024-03-02T03:42:10;25.17;;;14.60;;
11998;SDS011;40817;51.520;9.954;2024-03-02T03:44:37;22.45;;;13.48;;
11998;SDS011;40817;51.520;9.954;2024-03-02T03:47:08;25.00;;;13.82;;
11998;SDS011;40817;51.520;9.954;2024-03-02T03:49:55;22.85;;;13.60;;
11998;SDS011;40817;51.520;9.954;2024-03-02T03:52:22;25.65;;;14.75;;
11998;SDS011;40817;51.520;9.954;2024-03-02T03:54:50;22.50;;;13.25;;
11998;SDS011;40817;51.520;9.954;2024-03-02T03:57:17;22.30;;;12.55;;
11998;SDS011;40817;51.520;9.954;2024-03-02T03:59:45;25.85;;;13.85;;
11998;SDS011;40817;51.520;9.954;2024-03-02T04:02:13;22.33;;;13.00;;
11998;SDS011;40817;51.520;9.954;2024-03-02T04:04:41;22.52;;;13.02;;
11998;SDS011;40817;51.520;9.954;2024-03-02T04:07:08;22.98;;;12.45;;
11998;SDS011;40817;51.520;9.954;2024-03-02T04:09:36;23.23;;;14.13;;
11998;SDS011;40817;51.520;9.954;2024-03-02T04:12:03;22.55;;;12.50;;
11998;SDS011;40817;51.520;9.954;2024-03-02T04:14:31;23.58;;;13.50;;
11998;SDS011;40817;51.520;9.954;2024-03-02T04:16:58;23.67;;;14.40;;
11998;SDS011;40817;51.520;9.954;2024-03-02T04:19:27;24.10;;;13.30;;
11998;SDS011;40817;51.520;9.954;2024-03-02T04:21:54;24.35;;;13.48;;
11998;SDS011;40817;51.520;9.954;2024-03-02T04:24:21;23.65;;;13.23;;
11998;SDS011;40817;51.520;9.954;2024-03-02T04:26:48;22.58;;;12.45;;
11998;SDS011;40817;51.520;9.954;2024-03-02T04:29:16;20.42;;;12.43;;
11998;SDS011;40817;51.520;9.954;2024-03-02T04:31:43;24.77;;;14.25;;
11998;SDS011;40817;51.520;9.954;2024-03-02T04:34:11;22.10;;;13.07;;
11998;SDS011;40817;51.520;9.954;2024-03-02T04:36:39;25.42;;;14.35;;
11998;SDS011;40817;51.520;9.954;2024-03-02T04:39:06;23.95;;;14.27;;
11998;SDS011;40817;51.520;9.954;2024-03-02T04:41:35;24.52;;;14.40;;
11998;SDS011;40817;51.520;9.954;2024-03-02T04:44:03;27.45;;;14.48;;
11998;SDS011;40817;51.520;9.954;2024-03-02T04:46:33;25.95;;;15.13;;
11998;SDS011;40817;51.520;9.954;2024-03-02T04:49:00;25.05;;;15.05;;
11998;SDS011;40817;51.520;9.954;2024-03-02T04:51:27;29.65;;;15.15;;
11998;SDS011;40817;51.520;9.954;2024-03-02T04:53:56;23.00;;;14.25;;
11998;SDS011;40817;51.520;9.954;2024-03-02T04:56:23;23.90;;;14.57;;
11998;SDS011;40817;51.520;9.954;2024-03-02T04:59:05;24.77;;;13.98;;
11998;SDS011;40817;51.520;9.954;2024-03-02T05:01:33;25.75;;;15.20;;
11998;SDS011;40817;51.520;9.954;2024-03-02T05:04:00;26.23;;;15.20;;
11998;SDS011;40817;51.520;9.954;2024-03-02T05:06:27;26.33;;;14.18;;
11998;SDS011;40817;51.520;9.954;2024-03-02T05:08:56;28.88;;;15.20;;
11998;SDS011;40817;51.520;9.954;2024-03-02T05:11:23;24.42;;;13.82;;
11998;SDS011;40817;51.520;9.954;2024-03-02T05:14:08;24.65;;;14.57;;
11998;SDS011;40817;51.520;9.954;2024-03-02T05:16:35;27.05;;;15.30;;
11998;SDS011;40817;51.520;9.954;2024-03-02T05:19:03;28.90;;;14.48;;
11998;SDS011;40817;51.520;9.954;2024-03-02T05:21:31;25.80;;;14.90;;
11998;SDS011;40817;51.520;9.954;2024-03-02T05:24:00;28.40;;;16.10;;
11998;SDS011;40817;51.520;9.954;2024-03-02T05:26:28;28.13;;;16.85;;
11998;SDS011;40817;51.520;9.954;2024-03-02T05:28:55;30.35;;;16.08;;
11998;SDS011;40817;51.520;9.954;2024-03-02T05:31:22;28.08;;;15.32;;
11998;SDS011;40817;51.520;9.954;2024-03-02T05:33:49;27.98;;;15.55;;
11998;SDS011;40817;51.520;9.954;2024-03-02T05:36:17;26.02;;;15.05;;
11998;SDS011;40817;51.520;9.954;2024-03-02T05:38:45;30.98;;;16.05;;
11998;SDS011;40817;51.520;9.954;2024-03-02T05:41:14;27.15;;;15.75;;
11998;SDS011;40817;51.520;9.954;2024-03-02T05:43:41;28.25;;;15.45;;
11998;SDS011;40817;51.520;9.954;2024-03-02T05:46:09;32.30;;;15.25;;
11998;SDS011;40817;51.520;9.954;2024-03-02T05:48:37;32.72;;;17.20;;
11998;SDS011;40817;51.520;9.954;2024-03-02T05:51:04;27.52;;;15.93;;
11998;SDS011;40817;51.520;9.954;2024-03-02T05:53:31;30.20;;;16.58;;
11998;SDS011;40817;51.520;9.954;2024-03-02T05:55:58;27.00;;;15.95;;
11998;SDS011;40817;51.520;9.954;2024-03-02T05:58:27;30.23;;;15.43;;
11998;SDS011;40817;51.520;9.954;2024-03-02T06:01:08;29.88;;;16.08;;
11998;SDS011;40817;51.520;9.954;2024-03-02T06:03:35;29.58;;;17.55;;
11998;SDS011;40817;51.520;9.954;2024-03-02T06:06:02;26.02;;;14.88;;
11998;SDS011;40817;51.520;9.954;2024-03-02T06:08:30;28.17;;;16.15;;
11998;SDS011;40817;51.520;9.954;2024-03-02T06:10:58;30.17;;;16.73;;
11998;SDS011;40817;51.520;9.954;2024-03-02T06:13:25;29.90;;;16.45;;
11998;SDS011;40817;51.520;9.954;2024-03-02T06:15:53;29.50;;;16.73;;
11998;SDS011;40817;51.520;9.954;2024-03-02T06:18:21;30.02;;;15.95;;
11998;SDS011;40817;51.520;9.954;2024-03-02T06:20:50;31.15;;;17.02;;
11998;SDS011;40817;51.520;9.954;2024-03-02T06:23:17;29.65;;;16.75;;
11998;SDS011;40817;51.520;9.954;2024-03-02T06:25:45;28.13;;;14.80;;
11998;SDS011;40817;51.520;9.954;2024-03-02T06:28:12;30.15;;;15.48;;
11998;SDS011;40817;51.520;9.954;2024-03-02T06:30:41;30.98;;;16.13;;
11998;SDS011;40817;51.520;9.954;2024-03-02T06:33:09;30.58;;;16.45;;
11998;SDS011;40817;51.520;9.954;2024-03-02T06:35:36;28.08;;;16.17;;
11998;SDS011;40817;51.520;9.954;2024-03-02T06:38:04;30.17;;;15.52;;
11998;SDS011;40817;51.520;9.954;2024-03-02T06:40:30;32.15;;;17.60;;
11998;SDS011;40817;51.520;9.954;2024-03-02T06:42:57;27.42;;;15.70;;
11998;SDS011;40817;51.520;9.954;2024-03-02T06:45:24;29.73;;;16.92;;
11998;SDS011;40817;51.520;9.954;2024-03-02T06:47:53;31.90;;;17.13;;
11998;SDS011;40817;51.520;9.954;2024-03-02T06:50:21;28.45;;;16.48;;
11998;SDS011;40817;51.520;9.954;2024-03-02T06:52:48;31.85;;;16.85;;
11998;SDS011;40817;51.520;9.954;2024-03-02T06:55:15;29.15;;;17.60;;
11998;SDS011;40817;51.520;9.954;2024-03-02T06:57:43;32.22;;;16.35;;
11998;SDS011;40817;51.520;9.954;2024-03-02T07:00:10;30.42;;;17.42;;
11998;SDS011;40817;51.520;9.954;2024-03-02T07:02:39;27.27;;;16.65;;
11998;SDS011;40817;51.520;9.954;2024-03-02T07:05:08;30.63;;;16.08;;
11998;SDS011;40817;51.520;9.954;2024-03-02T07:07:36;32.15;;;17.00;;
11998;SDS011;40817;51.520;9.954;2024-03-02T07:10:04;32.13;;;17.20;;
11998;SDS011;40817;51.520;9.954;2024-03-02T07:12:33;30.10;;;16.27;;
11998;SDS011;40817;51.520;9.954;2024-03-02T07:15:01;34.58;;;17.65;;
11998;SDS011;40817;51.520;9.954;2024-03-02T07:17:50;31.83;;;16.52;;
11998;SDS011;40817;51.520;9.954;2024-03-02T07:20:18;33.53;;;17.30;;
11998;SDS011;40817;51.520;9.954;2024-03-02T07:22:45;32.63;;;15.70;;
11998;SDS011;40817;51.520;9.954;2024-03-02T07:25:13;27.45;;;16.45;;
11998;SDS011;40817;51.520;9.954;2024-03-02T07:27:40;29.05;;;16.95;;
11998;SDS011;40817;51.520;9.954;2024-03-02T07:30:09;33.03;;;17.02;;
11998;SDS011;40817;51.520;9.954;2024-03-02T07:32:41;29.70;;;16.70;;
11998;SDS011;40817;51.520;9.954;2024-03-02T07:35:10;31.00;;;16.90;;
11998;SDS011;40817;51.520;9.954;2024-03-02T07:37:40;30.88;;;17.48;;
11998;SDS011;40817;51.520;9.954;2024-03-02T07:40:08;31.20;;;16.08;;
11998;SDS011;40817;51.520;9.954;2024-03-02T07:42:37;29.80;;;15.23;;
11998;SDS011;40817;51.520;9.954;2024-03-02T07:45:06;28.50;;;16.10;;
11998;SDS011;40817;51.520;9.954;2024-03-02T07:47:34;31.73;;;17.48;;
11998;SDS011;40817;51.520;9.954;2024-03-02T07:50:02;33.47;;;18.02;;
11998;SDS011;40817;51.520;9.954;2024-03-02T07:52:32;32.55;;;17.15;;
11998;SDS011;40817;51.520;9.954;2024-03-02T07:55:01;30.30;;;16.90;;
11998;SDS011;40817;51.520;9.954;2024-03-02T07:57:28;32.22;;;16.83;;
11998;SDS011;40817;51.520;9.954;2024-03-02T07:59:55;27.02;;;16.83;;
11998;SDS011;40817;51.520;9.954;2024-03-02T08:02:24;29.13;;;17.38;;
11998;SDS011;40817;51.520;9.954;2024-03-02T08:04:51;28.70;;;17.20;;
11998;SDS011;40817;51.520;9.954;2024-03-02T08:07:19;29.85;;;17.55;;
11998;SDS011;40817;51.520;9.954;2024-03-02T08:09:46;29.02;;;16.63;;
11998;SDS011;40817;51.520;9.954;2024-03-02T08:12:15;30.10;;;16.92;;
11998;SDS011;40817;51.520;9.954;2024-03-02T08:14:44;29.88;;;16.85;;
11998;SDS011;40817;51.520;9.954;2024-03-02T08:17:11;27.33;;;15.77;;
11998;SDS011;40817;51.520;9.954;2024-03-02T08:19:39;29.10;;;17.02;;
11998;SDS011;40817;51.520;9.954;2024-03-02T08:22:06;26.50;;;16.08;;
11998;SDS011;40817;51.520;9.954;2024-03-02T08:24:34;29.75;;;15.82;;
11998;SDS011;40817;51.520;9.954;2024-03-02T08:27:01;26.73;;;15.13;;
11998;SDS011;40817;51.520;9.954;2024-03-02T08:29:31;28.30;;;14.73;;
11998;SDS011;40817;51.520;9.954;2024-03-02T08:31:58;25.95;;;14.75;;
11998;SDS011;40817;51.520;9.954;2024-03-02T08:34:26;26.80;;;14.30;;
11998;SDS011;40817;51.520;9.954;2024-03-02T08:36:53;29.67;;;14.88;;
11998;SDS011;40817;51.520;9.954;2024-03-02T08:39:20;24.92;;;13.68;;
11998;SDS011;40817;51.520;9.954;2024-03-02T08:41:47;27.38;;;14.15;;
11998;SDS011;40817;51.520;9.954;2024-03-02T08:44:15;26.02;;;13.82;;
11998;SDS011;40817;51.520;9.954;2024-03-02T08:46:44;25.52;;;14.13;;
11998;SDS011;40817;51.520;9.954;2024-03-02T08:49:12;27.42;;;13.40;;
11998;SDS011;40817;51.520;9.954;2024-03-02T08:51:39;25.70;;;13.40;;
11998;SDS011;40817;51.520;9.954;2024-03-02T08:54:06;24.55;;;14.68;;
11998;SDS011;40817;51.520;9.954;2024-03-02T08:56:35;22.75;;;12.88;;
11998;SDS011;40817;51.520;9.954;2024-03-02T08:59:02;26.73;;;13.95;;
11998;SDS011;40817;51.520;9.954;2024-03-02T09:01:30;26.73;;;13.73;;
11998;SDS011;40817;51.520;9.954;2024-03-02T09:03:59;23.85;;;14.05;;
11998;SDS011;40817;51.520;9.954;2024-03-02T09:06:26;21.65;;;12.40;;
11998;SDS011;40817;51.520;9.954;2024-03-02T09:08:53;24.25;;;12.75;;
11998;SDS011;40817;51.520;9.954;2024-03-02T09:11:20;24.63;;;13.55;;
11998;SDS011;40817;51.520;9.954;2024-03-02T09:13:47;23.40;;;13.77;;
11998;SDS011;40817;51.520;9.954;2024-03-02T09:16:15;22.55;;;13.68;;
11998;SDS011;40817;51.520;9.954;2024-03-02T09:18:42;24.75;;;14.65;;
11998;SDS011;40817;51.520;9.954;2024-03-02T09:21:11;25.00;;;14.55;;
11998;SDS011;40817;51.520;9.954;2024-03-02T09:23:38;27.25;;;14.50;;
11998;SDS011;40817;51.520;9.954;2024-03-02T09:26:06;21.15;;;12.57;;
11998;SDS011;40817;51.520;9.954;2024-03-02T09:28:33;24.27;;;12.65;;
11998;SDS011;40817;51.520;9.954;2024-03-02T09:31:00;22.38;;;13.10;;
11998;SDS011;40817;51.520;9.954;2024-03-02T09:33:27;21.55;;;11.85;;
11998;SDS011;40817;51.520;9.954;2024-03-02T09:35:55;20.63;;;12.35;;
11998;SDS011;40817;51.520;9.954;2024-03-02T09:38:23;21.38;;;12.10;;
11998;SDS011;40817;51.520;9.954;2024-03-02T09:40:50;20.65;;;12.10;;
11998;SDS011;40817;51.520;9.954;2024-03-02T09:43:18;21.83;;;12.07;;
11998;SDS011;40817;51.520;9.954;2024-03-02T09:45:45;20.95;;;12.10;;
11998;SDS011;40817;51.520;9.954;2024-03-02T09:48:12;22.05;;;11.52;;
11998;SDS011;40817;51.520;9.954;2024-03-02T09:50:43;18.35;;;11.32;;
11998;SDS011;40817;51.520;9.954;2024-03-02T09:53:10;21.98;;;11.48;;
11998;SDS011;40817;51.520;9.954;2024-03-02T09:55:41;20.23;;;11.35;;
11998;SDS011;40817;51.520;9.954;2024-03-02T09:58:14;17.40;;;10.35;;
11998;SDS011;40817;51.520;9.954;2024-03-02T10:00:41;19.90;;;10.93;;
11998;SDS011;40817;51.520;9.954;2024-03-02T10:03:11;17.73;;;10.65;;
11998;SDS011;40817;51.520;9.954;2024-03-02T10:05:39;18.48;;;11.35;;
11998;SDS011;40817;51.520;9.954;2024-03-02T10:08:07;19.25;;;11.23;;
11998;SDS011;40817;51.520;9.954;2024-03-02T10:10:35;19.58;;;10.85;;
11998;SDS011;40817;51.520;9.954;2024-03-02T10:13:06;17.10;;;9.98;;
11998;SDS011;40817;51.520;9.954;2024-03-02T10:15:36;17.52;;;10.43;;
11998;SDS011;40817;51.520;9.954;2024-03-02T10:18:08;17.75;;;9.13;;
11998;SDS011;40817;51.520;9.954;2024-03-02T10:20:37;18.45;;;9.75;;
11998;SDS011;40817;51.520;9.954;2024-03-02T10:23:11;15.13;;;8.60;;
11998;SDS011;40817;51.520;9.954;2024-03-02T10:25:41;15.05;;;8.70;;
11998;SDS011;40817;51.520;9.954;2024-03-02T10:28:11;14.50;;;7.80;;
11998;SDS011;40817;51.520;9.954;2024-03-02T10:30:39;13.93;;;7.63;;
11998;SDS011;40817;51.520;9.954;2024-03-02T10:33:06;14.75;;;7.95;;
11998;SDS011;40817;51.520;9.954;2024-03-02T10:35:33;14.35;;;7.65;;
11998;SDS011;40817;51.520;9.954;2024-03-02T10:38:03;10.90;;;6.80;;
11998;SDS011;40817;51.520;9.954;2024-03-02T10:40:32;12.55;;;7.00;;
11998;SDS011;40817;51.520;9.954;2024-03-02T10:43:00;11.68;;;6.35;;
11998;SDS011;40817;51.520;9.954;2024-03-02T10:45:32;11.73;;;6.05;;
11998;SDS011;40817;51.520;9.954;2024-03-02T10:47:59;10.80;;;6.78;;
11998;SDS011;40817;51.520;9.954;2024-03-02T10:50:30;13.77;;;7.22;;
11998;SDS011;40817;51.520;9.954;2024-03-02T10:52:58;12.50;;;7.72;;
11998;SDS011;40817;51.520;9.954;2024-03-02T10:55:25;12.98;;;8.27;;
11998;SDS011;40817;51.520;9.954;2024-03-02T10:57:52;11.70;;;7.03;;
11998;SDS011;40817;51.520;9.954;2024-03-02T11:00:23;10.98;;;6.85;;
11998;SDS011;40817;51.520;9.954;2024-03-02T11:02:57;11.45;;;6.38;;
11998;SDS011;40817;51.520;9.954;2024-03-02T11:05:31;13.05;;;6.75;;
11998;SDS011;40817;51.520;9.954;2024-03-02T11:08:06;13.40;;;6.85;;
11998;SDS011;40817;51.520;9.954;2024-03-02T11:10:40;11.68;;;6.63;;
11998;SDS011;40817;51.520;9.954;2024-03-02T11:13:16;16.13;;;6.95;;
11998;SDS011;40817;51.520;9.954;2024-03-02T11:15:51;13.38;;;7.28;;
11998;SDS011;40817;51.520;9.954;2024-03-02T11:18:26;10.20;;;6.43;;
11998;SDS011;40817;51.520;9.954;2024-03-02T11:20:55;13.38;;;7.05;;
11998;SDS011;40817;51.520;9.954;2024-03-02T11:23:31;9.82;;;6.32;;
11998;SDS011;40817;51.520;9.954;2024-03-02T11:28:46;11.93;;;7.05;;
11998;SDS011;40817;51.520;9.954;2024-03-02T11:31:14;11.70;;;6.75;;
11998;SDS011;40817;51.520;9.954;2024-03-02T11:33:42;10.40;;;6.50;;
11998;SDS011;40817;51.520;9.954;2024-03-02T11:36:09;9.73;;;5.38;;
11998;SDS011;40817;51.520;9.954;2024-03-02T11:38:37;11.57;;;6.80;;
11998;SDS011;40817;51.520;9.954;2024-03-02T11:41:05;11.75;;;6.88;;
11998;SDS011;40817;51.520;9.954;2024-03-02T11:43:36;12.82;;;7.57;;
11998;SDS011;40817;51.520;9.954;2024-03-02T11:46:05;11.55;;;6.30;;
11998;SDS011;40817;51.520;9.954;2024-03-02T11:48:34;12.98;;;7.20;;
11998;SDS011;40817;51.520;9.954;2024-03-02T11:51:04;10.55;;;6.25;;
11998;SDS011;40817;51.520;9.954;2024-03-02T11:53:31;12.65;;;7.25;;
11998;SDS011;40817;51.520;9.954;2024-03-02T11:56:01;12.13;;;6.72;;
11998;SDS011;40817;51.520;9.954;2024-03-02T11:58:30;11.75;;;7.53;;
11998;SDS011;40817;51.520;9.954;2024-03-02T12:00:59;11.60;;;6.82;;
11998;SDS011;40817;51.520;9.954;2024-03-02T12:03:27;12.68;;;6.65;;
11998;SDS011;40817;51.520;9.954;2024-03-02T12:05:55;10.23;;;6.35;;
11998;SDS011;40817;51.520;9.954;2024-03-02T12:08:23;10.27;;;6.15;;
11998;SDS011;40817;51.520;9.954;2024-03-02T12:10:57;10.25;;;6.40;;
11998;SDS011;40817;51.520;9.954;2024-03-02T12:13:26;12.13;;;6.38;;
11998;SDS011;40817;51.520;9.954;2024-03-02T12:15:54;9.50;;;6.15;;
11998;SDS011;40817;51.520;9.954;2024-03-02T12:18:22;9.77;;;6.03;;
11998;SDS011;40817;51.520;9.954;2024-03-02T12:20:50;10.27;;;6.03;;
11998;SDS011;40817;51.520;9.954;2024-03-02T12:23:23;10.98;;;5.85;;
11998;SDS011;40817;51.520;9.954;2024-03-02T12:25:51;9.13;;;5.70;;
11998;SDS011;40817;51.520;9.954;2024-03-02T12:28:18;8.82;;;5.68;;
11998;SDS011;40817;51.520;9.954;2024-03-02T12:30:46;9.00;;;5.50;;
11998;SDS011;40817;51.520;9.954;2024-03-02T12:33:14;7.78;;;5.13;;
11998;SDS011;40817;51.520;9.954;2024-03-02T12:35:42;6.90;;;4.55;;
11998;SDS011;40817;51.520;9.954;2024-03-02T12:38:09;7.05;;;5.07;;
11998;SDS011;40817;51.520;9.954;2024-03-02T12:40:38;7.53;;;5.03;;
11998;SDS011;40817;51.520;9.954;2024-03-02T12:43:05;7.25;;;4.53;;
11998;SDS011;40817;51.520;9.954;2024-03-02T12:45:33;7.70;;;4.07;;
11998;SDS011;40817;51.520;9.954;2024-03-02T12:48:01;7.75;;;4.22;;
11998;SDS011;40817;51.520;9.954;2024-03-02T12:50:30;8.35;;;4.15;;
11998;SDS011;40817;51.520;9.954;2024-03-02T12:52:57;7.07;;;3.65;;
11998;SDS011;40817;51.520;9.954;2024-03-02T12:55:25;8.00;;;3.92;;
11998;SDS011;40817;51.520;9.954;2024-03-02T12:57:55;6.82;;;4.15;;
11998;SDS011;40817;51.520;9.954;2024-03-02T13:00:24;6.93;;;4.18;;
11998;SDS011;40817;51.520;9.954;2024-03-02T13:02:51;6.47;;;4.43;;
11998;SDS011;40817;51.520;9.954;2024-03-02T13:05:18;8.38;;;4.68;;
11998;SDS011;40817;51.520;9.954;2024-03-02T13:07:46;8.68;;;4.85;;
11998;SDS011;40817;51.520;9.954;2024-03-02T13:10:14;7.75;;;5.07;;
11998;SDS011;40817;51.520;9.954;2024-03-02T13:12:41;6.70;;;3.97;;
11998;SDS011;40817;51.520;9.954;2024-03-02T13:15:10;6.60;;;3.92;;
11998;SDS011;40817;51.520;9.954;2024-03-02T13:17:38;8.52;;;4.30;;
11998;SDS011;40817;51.520;9.954;2024-03-02T13:20:06;9.98;;;3.53;;
11998;SDS011;40817;51.520;9.954;2024-03-02T13:22:35;6.53;;;3.15;;
11998;SDS011;40817;51.520;9.954;2024-03-02T13:25:03;5.50;;;3.42;;
11998;SDS011;40817;51.520;9.954;2024-03-02T13:27:33;6.00;;;2.90;;
11998;SDS011;40817;51.520;9.954;2024-03-02T13:30:01;8.25;;;5.10;;
11998;SDS011;40817;51.520;9.954;2024-03-02T13:32:32;6.82;;;5.03;;
11998;SDS011;40817;51.520;9.954;2024-03-02T13:34:59;7.78;;;5.43;;
11998;SDS011;40817;51.520;9.954;2024-03-02T13:37:28;8.52;;;5.45;;
11998;SDS011;40817;51.520;9.954;2024-03-02T13:39:55;6.47;;;4.07;;
11998;SDS011;40817;51.520;9.954;2024-03-02T13:42:22;5.18;;;2.55;;
11998;SDS011;40817;51.520;9.954;2024-03-02T13:44:50;5.20;;;2.53;;
11998;SDS011;40817;51.520;9.954;2024-03-02T13:47:17;5.40;;;3.40;;
11998;SDS011;40817;51.520;9.954;2024-03-02T13:49:47;5.75;;;3.60;;
11998;SDS011;40817;51.520;9.954;2024-03-02T13:52:14;7.00;;;4.10;;
11998;SDS011;40817;51.520;9.954;2024-03-02T13:54:42;5.30;;;3.67;;
11998;SDS011;40817;51.520;9.954;2024-03-02T13:57:11;4.97;;;2.78;;
11998;SDS011;40817;51.520;9.954;2024-03-02T13:59:40;4.55;;;2.63;;
11998;SDS011;40817;51.520;9.954;2024-03-02T14:02:08;5.90;;;3.35;;
11998;SDS011;40817;51.520;9.954;2024-03-02T14:04:37;4.97;;;3.20;;
11998;SDS011;40817;51.520;9.954;2024-03-02T14:07:06;3.33;;;1.70;;
11998;SDS011;40817;51.520;9.954;2024-03-02T14:09:33;4.00;;;2.10;;
11998;SDS011;40817;51.520;9.954;2024-03-02T14:12:01;2.20;;;1.40;;
11998;SDS011;40817;51.520;9.954;2024-03-02T14:14:31;2.90;;;1.40;;
11998;SDS011;40817;51.520;9.954;2024-03-02T14:16:58;3.22;;;1.65;;
11998;SDS011;40817;51.520;9.954;2024-03-02T14:19:29;4.32;;;1.90;;
11998;SDS011;40817;51.520;9.954;2024-03-02T14:21:56;3.63;;;1.92;;
11998;SDS011;40817;51.520;9.954;2024-03-02T14:24:25;2.85;;;1.58;;
11998;SDS011;40817;51.520;9.954;2024-03-02T14:26:54;2.65;;;1.63;;
11998;SDS011;40817;51.520;9.954;2024-03-02T14:29:22;2.80;;;1.50;;
11998;SDS011;40817;51.520;9.954;2024-03-02T14:31:49;3.13;;;1.40;;
11998;SDS011;40817;51.520;9.954;2024-03-02T14:34:17;3.78;;;1.90;;
11998;SDS011;40817;51.520;9.954;2024-03-02T14:36:44;2.72;;;1.40;;
11998;SDS011;40817;51.520;9.954;2024-03-02T14:39:11;4.10;;;1.42;;